createdAt,value
2019-04-10T00:02:21.708Z,11.35
2019-04-10T00:04:49.553Z,12.40
2019-04-10T00:07:18.371Z,12.28
2019-04-10T00:09:47.504Z,12.63
2019-04-10T00:12:15.703Z,12.35
2019-04-10T00:14:45.151Z,12.03
2019-04-10T00:17:13.138Z,10.91
2019-04-10T00:19:40.996Z,11.46
2019-04-10T00:22:09.706Z,12.47
2019-04-10T00:24:37.884Z,12.68
2019-04-10T00:27:06.139Z,13.07
2019-04-10T00:29:34.226Z,12.44
2019-04-10T00:32:02.372Z,12.33
2019-04-10T00:34:31.743Z,13.05
2019-04-10T00:36:59.670Z,12.00
2019-04-10T00:39:28.598Z,12.36
2019-04-10T00:41:56.829Z,12.55
2019-04-10T00:44:25.754Z,12.92
2019-04-10T00:46:53.593Z,12.64
2019-04-10T00:49:22.392Z,13.10
2019-04-10T00:51:50.156Z,12.49
2019-04-10T00:54:18.162Z,12.38
2019-04-10T00:56:46.176Z,12.83
2019-04-10T00:59:14.141Z,12.83
2019-04-10T01:01:41.904Z,12.76
2019-04-10T01:04:10.554Z,12.54
2019-04-10T01:06:38.537Z,12.13
2019-04-10T01:09:08.792Z,11.80
2019-04-10T01:11:36.689Z,12.08
2019-04-10T01:14:05.443Z,10.89
2019-04-10T01:16:33.534Z,10.88
2019-04-10T01:19:01.741Z,10.72
2019-04-10T01:21:30.456Z,11.59
2019-04-10T01:23:59.401Z,11.69
2019-04-10T01:26:28.065Z,11.35
2019-04-10T01:28:56.033Z,11.06
2019-04-10T01:31:23.799Z,10.98
2019-04-10T01:33:52.630Z,10.91
2019-04-10T01:36:20.748Z,11.60
2019-04-10T01:38:51.611Z,11.99
2019-04-10T01:41:19.570Z,11.83
2019-04-10T01:43:47.318Z,11.00
2019-04-10T01:46:15.914Z,12.00
2019-04-10T01:48:44.039Z,11.49
2019-04-10T01:51:11.908Z,11.36
2019-04-10T01:53:39.855Z,11.77
2019-04-10T01:56:21.111Z,11.42
2019-04-10T01:58:37.747Z,10.60
2019-04-10T02:01:14.676Z,10.80
2019-04-10T02:03:42.682Z,10.27
2019-04-10T02:06:11.341Z,11.93
2019-04-10T02:08:40.233Z,11.58
2019-04-10T02:11:08.884Z,12.25
2019-04-10T02:13:36.742Z,12.29
2019-04-10T02:16:04.504Z,12.28
2019-04-10T02:18:33.137Z,11.73
2019-04-10T02:21:01.227Z,10.12
2019-04-10T02:23:30.196Z,10.09
2019-04-10T02:25:58.660Z,9.39
2019-04-10T02:28:27.043Z,11.13
2019-04-10T02:30:56.522Z,9.85
2019-04-10T02:33:25.430Z,11.05
2019-04-10T02:35:54.742Z,12.14
2019-04-10T02:38:38.979Z,12.15
2019-04-10T02:40:52.977Z,12.54
2019-04-10T02:43:21.220Z,12.23
2019-04-10T02:45:49.374Z,12.52
2019-04-10T02:48:17.264Z,12.93
2019-04-10T02:50:45.207Z,12.55
2019-04-10T02:53:13.231Z,12.47
2019-04-10T02:55:41.187Z,11.65
2019-04-10T02:58:09.675Z,10.72
2019-04-10T03:00:37.931Z,11.17
2019-04-10T03:03:05.797Z,12.39
2019-04-10T03:05:34.637Z,12.66
2019-04-10T03:08:04.882Z,12.72
2019-04-10T03:10:41.340Z,12.07
2019-04-10T03:13:02.696Z,11.57
2019-04-10T03:15:31.521Z,11.95
2019-04-10T03:17:59.477Z,11.62
2019-04-10T03:20:27.215Z,11.76
2019-04-10T03:22:56.830Z,11.86
2019-04-10T03:25:24.744Z,11.64
2019-04-10T03:27:52.602Z,12.05
2019-04-10T03:30:22.698Z,11.72
2019-04-10T03:33:11.442Z,11.86
2019-04-10T03:35:48.111Z,11.43
2019-04-10T03:38:16.395Z,11.21
2019-04-10T03:40:44.132Z,10.71
2019-04-10T03:43:11.909Z,11.05
2019-04-10T03:45:39.712Z,10.91
2019-04-10T03:48:08.457Z,10.48
2019-04-10T03:50:36.422Z,12.00
2019-04-10T03:53:04.264Z,11.90
2019-04-10T03:55:32.711Z,11.07
2019-04-10T03:58:00.787Z,11.67
2019-04-10T04:00:28.659Z,11.51
2019-04-10T04:02:56.397Z,11.41
2019-04-10T04:05:24.172Z,11.30
2019-04-10T04:07:51.909Z,11.11
2019-04-10T04:10:20.488Z,11.19
2019-04-10T04:12:48.269Z,11.88
2019-04-10T04:15:16.096Z,12.24
2019-04-10T04:17:44.420Z,11.99
2019-04-10T04:20:12.821Z,11.99
2019-04-10T04:22:41.140Z,11.62
2019-04-10T04:25:09.023Z,11.32
2019-04-10T04:27:37.726Z,11.63
2019-04-10T04:30:06.360Z,11.68
2019-04-10T04:32:34.246Z,11.49
2019-04-10T04:35:02.414Z,11.44
2019-04-10T04:37:30.238Z,10.69
2019-04-10T04:39:58.353Z,10.88
2019-04-10T04:42:26.513Z,11.34
2019-04-10T04:44:54.345Z,11.84
2019-04-10T04:47:22.345Z,12.10
2019-04-10T04:49:50.309Z,11.70
2019-04-10T04:52:18.357Z,11.91
2019-04-10T04:54:46.278Z,12.29
2019-04-10T04:57:14.921Z,12.62
2019-04-10T04:59:42.999Z,12.54
2019-04-10T05:02:10.783Z,12.53
2019-04-10T05:04:39.519Z,12.05
2019-04-10T05:07:08.359Z,12.79
2019-04-10T05:09:39.113Z,12.72
2019-04-10T05:12:05.739Z,12.31
2019-04-10T05:14:33.574Z,13.01
2019-04-10T05:17:01.354Z,13.05
2019-04-10T05:19:31.369Z,12.82
2019-04-10T05:21:59.514Z,12.99
2019-04-10T05:24:27.934Z,12.69
2019-04-10T05:26:56.911Z,12.64
2019-04-10T05:29:25.083Z,12.65
2019-04-10T05:31:53.273Z,11.72
2019-04-10T05:34:21.979Z,12.30
2019-04-10T05:36:51.130Z,12.70
2019-04-10T05:39:19.206Z,12.90
2019-04-10T05:41:47.161Z,13.13
2019-04-10T05:44:16.684Z,13.12
2019-04-10T05:46:45.059Z,14.04
2019-04-10T05:49:14.960Z,14.20
2019-04-10T05:51:43.658Z,13.99
2019-04-10T05:54:11.467Z,14.08
2019-04-10T05:56:39.244Z,14.40
2019-04-10T05:59:08.566Z,13.87
2019-04-10T06:01:39.728Z,12.73
2019-04-10T06:04:07.032Z,13.98
2019-04-10T06:06:35.157Z,14.29
2019-04-10T06:09:04.478Z,13.13
2019-04-10T06:11:33.119Z,12.16
2019-04-10T06:14:01.151Z,12.79
2019-04-10T06:16:30.216Z,13.10
2019-04-10T06:18:58.231Z,13.74
2019-04-10T06:21:31.400Z,14.50
2019-04-10T06:24:03.537Z,14.83
2019-04-10T06:26:32.563Z,14.88
2019-04-10T06:29:00.649Z,14.14
2019-04-10T06:31:28.524Z,11.60
2019-04-10T06:33:56.390Z,12.06
2019-04-10T06:36:25.107Z,11.64
2019-04-10T06:38:53.217Z,11.22
2019-04-10T06:41:22.187Z,10.95
2019-04-10T06:43:50.318Z,10.09
2019-04-10T06:46:18.365Z,9.75
2019-04-10T06:48:46.209Z,9.46
2019-04-10T06:51:13.956Z,9.57
2019-04-10T06:53:41.812Z,8.80
2019-04-10T06:56:09.903Z,10.28
2019-04-10T06:58:38.181Z,10.27
2019-04-10T07:01:06.347Z,9.64
2019-04-10T07:03:49.425Z,9.58
2019-04-10T07:06:13.413Z,10.01
2019-04-10T07:08:34.086Z,9.99
2019-04-10T07:11:08.177Z,9.95
2019-04-10T07:13:39.543Z,10.17
2019-04-10T07:16:04.366Z,9.63
2019-04-10T07:18:32.778Z,9.84
2019-04-10T07:21:02.068Z,10.92
2019-04-10T07:23:31.925Z,12.05
2019-04-10T07:25:59.282Z,12.81
2019-04-10T07:28:27.807Z,11.75
2019-04-10T07:31:00.266Z,11.73
2019-04-10T07:33:26.618Z,10.58
2019-04-10T07:35:56.591Z,9.91
2019-04-10T07:38:24.712Z,10.17
2019-04-10T07:40:52.544Z,9.81
2019-04-10T07:43:25.459Z,10.23
2019-04-10T07:45:49.726Z,9.80
2019-04-10T07:48:19.256Z,9.79
2019-04-10T07:50:48.297Z,9.99
2019-04-10T07:53:16.891Z,8.98
2019-04-10T07:55:57.494Z,10.24
2019-04-10T07:58:15.230Z,10.91
2019-04-10T08:00:43.079Z,11.88
2019-04-10T08:03:11.028Z,13.09
2019-04-10T08:05:38.799Z,13.45
2019-04-10T08:08:06.540Z,13.18
2019-04-10T08:10:34.799Z,13.34
2019-04-10T08:13:04.414Z,13.65
2019-04-10T08:15:33.570Z,12.94
2019-04-10T08:18:02.449Z,13.65
2019-04-10T08:20:30.678Z,13.85
2019-04-10T08:22:59.452Z,13.61
2019-04-10T08:25:27.612Z,13.34
2019-04-10T08:27:56.365Z,13.51
2019-04-10T08:30:24.166Z,13.68
2019-04-10T08:32:59.616Z,14.04
2019-04-10T08:35:21.489Z,13.25
2019-04-10T08:37:50.382Z,13.15
2019-04-10T08:40:19.102Z,13.40
2019-04-10T08:42:47.615Z,12.96
2019-04-10T08:45:15.432Z,13.14
2019-04-10T08:47:44.171Z,12.64
2019-04-10T08:50:12.101Z,12.79
2019-04-10T08:52:41.855Z,12.70
2019-04-10T08:55:11.306Z,11.98
2019-04-10T08:57:39.039Z,12.22
2019-04-10T09:00:08.005Z,12.52
2019-04-10T09:02:36.000Z,12.35
2019-04-10T09:05:03.857Z,12.40
2019-04-10T09:07:32.469Z,12.71
2019-04-10T09:10:00.349Z,13.10
2019-04-10T09:12:29.578Z,13.58
2019-04-10T09:14:57.416Z,13.26
2019-04-10T09:17:25.213Z,13.62
2019-04-10T09:19:54.008Z,13.33
2019-04-10T09:22:22.559Z,13.35
2019-04-10T09:24:50.780Z,13.10
2019-04-10T09:27:19.209Z,13.35
2019-04-10T09:29:47.149Z,13.16
2019-04-10T09:32:14.936Z,13.15
2019-04-10T09:34:45.548Z,13.37
2019-04-10T09:37:12.237Z,13.41
2019-04-10T09:39:40.017Z,13.26
2019-04-10T09:42:08.702Z,13.57
2019-04-10T09:44:36.588Z,13.39
2019-04-10T09:47:05.533Z,13.30
2019-04-10T09:49:41.535Z,13.57
2019-04-10T09:52:03.037Z,13.17
2019-04-10T09:54:31.537Z,13.11
2019-04-10T09:57:01.261Z,13.11
2019-04-10T09:59:35.572Z,12.75
2019-04-10T10:01:59.042Z,13.08
2019-04-10T10:04:26.783Z,13.23
2019-04-10T10:06:55.663Z,12.78
2019-04-10T10:09:23.892Z,12.86
2019-04-10T10:11:51.683Z,13.22
2019-04-10T10:14:19.442Z,13.12
2019-04-10T10:16:48.330Z,13.15
2019-04-10T10:19:16.243Z,13.42
2019-04-10T10:21:44.886Z,12.38
2019-04-10T10:24:12.725Z,12.83
2019-04-10T10:26:43.240Z,12.55
2019-04-10T10:29:09.958Z,12.59
2019-04-10T10:31:38.018Z,12.91
2019-04-10T10:34:06.080Z,13.35
2019-04-10T10:36:40.675Z,13.40
2019-04-10T10:39:10.600Z,13.54
2019-04-10T10:41:33.967Z,13.44
2019-04-10T10:44:01.741Z,13.64
2019-04-10T10:46:29.515Z,13.41
2019-04-10T10:48:57.273Z,13.54
2019-04-10T10:51:25.057Z,13.40
2019-04-10T10:53:52.879Z,13.58
2019-04-10T10:56:20.718Z,13.96
2019-04-10T10:58:50.173Z,13.87
2019-04-10T11:01:18.133Z,13.84
2019-04-10T11:03:46.680Z,13.60
2019-04-10T11:06:14.976Z,13.72
2019-04-10T11:08:43.916Z,13.32
2019-04-10T11:11:12.745Z,13.61
2019-04-10T11:13:40.906Z,13.64
2019-04-10T11:16:09.234Z,13.92
2019-04-10T11:18:38.031Z,14.13
2019-04-10T11:21:09.921Z,14.48
2019-04-10T11:23:36.370Z,14.69
2019-04-10T11:26:04.678Z,14.54
2019-04-10T11:28:33.809Z,14.20
2019-04-10T11:31:02.514Z,14.39
2019-04-10T11:33:30.763Z,14.43
2019-04-10T11:36:00.184Z,14.00
2019-04-10T11:38:29.067Z,14.17
2019-04-10T11:40:59.755Z,14.28
2019-04-10T11:43:27.819Z,13.79
2019-04-10T11:45:58.507Z,14.38
2019-04-10T11:48:27.927Z,14.35
2019-04-10T11:50:59.052Z,14.96
2019-04-10T11:53:26.522Z,14.90
2019-04-10T11:55:56.248Z,15.33
2019-04-10T11:58:25.222Z,15.88
2019-04-10T12:00:56.058Z,15.47
2019-04-10T12:03:24.052Z,15.71
2019-04-10T12:05:55.149Z,15.34
2019-04-10T12:08:45.152Z,15.52
2019-04-10T12:13:21.998Z,15.16
2019-04-10T12:15:50.466Z,14.77
2019-04-10T12:18:18.408Z,14.74
2019-04-10T12:20:46.171Z,15.16
2019-04-10T12:23:13.957Z,14.79
2019-04-10T12:25:41.699Z,15.93
2019-04-10T12:28:09.615Z,16.25
2019-04-10T12:30:37.476Z,15.35
2019-04-10T12:33:05.442Z,16.05
2019-04-10T12:35:33.966Z,15.14
2019-04-10T12:38:05.401Z,15.44
2019-04-10T12:40:31.372Z,16.01
2019-04-10T12:42:59.229Z,15.71
2019-04-10T12:45:26.977Z,15.23
2019-04-10T12:47:54.807Z,15.54
2019-04-10T12:50:22.646Z,16.24
2019-04-10T12:52:51.277Z,15.45
2019-04-10T12:55:19.173Z,15.51
2019-04-10T12:57:47.612Z,15.59
2019-04-10T13:00:18.136Z,15.43
2019-04-10T13:02:47.014Z,14.81
2019-04-10T13:05:15.017Z,15.20
2019-04-10T13:07:43.597Z,14.88
2019-04-10T13:10:12.760Z,15.19
2019-04-10T13:12:41.732Z,15.09
2019-04-10T13:15:13.093Z,15.45
2019-04-10T13:17:40.877Z,15.07
2019-04-10T13:20:09.357Z,15.08
2019-04-10T13:22:37.181Z,15.20
2019-04-10T13:25:06.015Z,15.55
2019-04-10T13:27:34.775Z,15.11
2019-04-10T13:30:02.941Z,15.09
2019-04-10T13:32:31.882Z,15.21
2019-04-10T13:34:59.814Z,15.38
2019-04-10T13:37:28.405Z,15.36
2019-04-10T13:39:57.239Z,15.79
2019-04-10T13:42:25.164Z,15.37
2019-04-10T13:44:53.009Z,15.35
2019-04-10T13:47:35.836Z,15.51
2019-04-10T13:49:57.941Z,15.36
2019-04-10T13:52:25.984Z,15.25
2019-04-10T13:54:54.706Z,15.41
2019-04-10T13:57:22.672Z,15.28
2019-04-10T13:59:50.465Z,15.43
2019-04-10T14:02:32.169Z,15.24
2019-04-10T14:05:00.453Z,14.89
2019-04-10T14:07:28.389Z,14.94
2019-04-10T14:09:56.587Z,15.59
2019-04-10T14:12:24.982Z,15.64
2019-04-10T14:14:55.083Z,15.65
2019-04-10T14:17:22.366Z,15.27
2019-04-10T14:19:52.441Z,15.74
2019-04-10T14:22:20.262Z,15.54
2019-04-10T14:24:49.734Z,15.35
2019-04-10T14:27:21.767Z,15.48
2019-04-10T14:29:51.072Z,15.59
2019-04-10T14:32:26.429Z,15.71
2019-04-10T14:34:54.606Z,15.96
2019-04-10T14:37:22.797Z,15.50
2019-04-10T14:39:51.560Z,15.94
2019-04-10T14:42:19.506Z,15.77
2019-04-10T14:44:47.250Z,15.35
2019-04-10T14:47:17.053Z,15.72
2019-04-10T14:49:45.140Z,15.73
2019-04-10T14:52:13.014Z,16.12
2019-04-10T14:54:40.781Z,15.76
2019-04-10T14:57:08.656Z,15.81
2019-04-10T14:59:36.478Z,15.83
2019-04-10T15:02:06.441Z,16.05
2019-04-10T15:04:35.277Z,15.72
2019-04-10T15:07:03.925Z,15.30
2019-04-10T15:09:31.795Z,15.45
2019-04-10T15:11:59.560Z,15.65
2019-04-10T15:14:27.854Z,15.65
2019-04-10T15:17:02.662Z,15.55
2019-04-10T15:19:25.274Z,14.90
2019-04-10T15:21:54.063Z,15.40
2019-04-10T15:24:21.948Z,15.39
2019-04-10T15:26:50.885Z,15.22
2019-04-10T15:29:18.861Z,15.39
2019-04-10T15:31:46.704Z,15.25
2019-04-10T15:34:14.550Z,14.74
2019-04-10T15:36:44.708Z,14.33
2019-04-10T15:39:12.673Z,14.93
2019-04-10T15:41:41.293Z,14.40
2019-04-10T15:44:09.893Z,14.25
2019-04-10T15:46:37.779Z,14.04
2019-04-10T15:49:05.527Z,14.58
2019-04-10T15:51:33.334Z,14.70
2019-04-10T15:54:02.049Z,15.07
2019-04-10T15:56:29.944Z,14.92
2019-04-10T15:58:58.007Z,13.83
2019-04-10T16:01:28.342Z,14.43
2019-04-10T16:03:55.740Z,14.85
2019-04-10T16:06:24.994Z,14.91
2019-04-10T16:08:53.029Z,14.90
2019-04-10T16:11:36.223Z,14.94
2019-04-10T16:14:16.687Z,15.06
2019-04-10T16:16:54.929Z,14.67
2019-04-10T16:19:34.605Z,14.93
2019-04-10T16:22:02.690Z,14.83
2019-04-10T16:24:31.143Z,15.17
2019-04-10T16:26:59.989Z,15.49
2019-04-10T16:29:28.856Z,14.77
2019-04-10T16:31:56.756Z,15.12
2019-04-10T16:34:24.865Z,15.81
2019-04-10T16:36:52.923Z,15.29
2019-04-10T16:39:20.863Z,15.47
2019-04-10T16:41:48.746Z,15.52
2019-04-10T16:44:17.165Z,15.88
2019-04-10T16:46:45.219Z,15.69
2019-04-10T16:49:13.066Z,15.06
2019-04-10T16:51:40.897Z,15.36
2019-04-10T16:54:08.759Z,15.19
2019-04-10T16:56:38.032Z,15.71
2019-04-10T16:59:06.652Z,16.00
2019-04-10T17:01:35.040Z,15.81
2019-04-10T17:04:02.866Z,15.82
2019-04-10T17:06:30.629Z,14.97
2019-04-10T17:08:58.548Z,14.23
2019-04-10T17:11:27.204Z,13.10
2019-04-10T17:13:55.114Z,12.69
2019-04-10T17:16:23.899Z,12.97
2019-04-10T17:18:51.813Z,13.00
2019-04-10T17:21:19.972Z,13.59
2019-04-10T17:23:48.997Z,12.83
2019-04-10T17:26:17.142Z,12.50
2019-04-10T17:28:45.261Z,13.16
2019-04-10T17:31:14.573Z,12.90
2019-04-10T17:33:43.709Z,12.43
2019-04-10T17:36:14.686Z,12.94
2019-04-10T17:38:42.866Z,12.74
2019-04-10T17:41:11.209Z,12.70
2019-04-10T17:43:39.095Z,13.06
2019-04-10T17:46:07.060Z,13.37
2019-04-10T17:48:37.213Z,13.47
2019-04-10T17:51:05.863Z,13.65
2019-04-10T17:53:34.103Z,13.53
2019-04-10T17:56:02.146Z,13.50
2019-04-10T17:58:30.009Z,12.62
2019-04-10T18:00:59.736Z,11.95
2019-04-10T18:03:39.591Z,12.23
2019-04-10T18:05:57.231Z,12.62
2019-04-10T18:08:26.765Z,12.67
2019-04-10T18:10:56.815Z,13.07
2019-04-10T18:13:24.610Z,12.74
2019-04-10T18:15:53.787Z,12.88
2019-04-10T18:18:22.048Z,12.57
2019-04-10T18:20:51.043Z,12.11
2019-04-10T18:23:19.651Z,12.62
2019-04-10T18:25:47.429Z,12.09
2019-04-10T18:28:15.191Z,12.33
2019-04-10T18:30:43.926Z,11.33
2019-04-10T18:33:12.120Z,11.45
2019-04-10T18:35:40.729Z,12.29
2019-04-10T18:38:09.028Z,11.43
2019-04-10T18:40:37.100Z,10.91
2019-04-10T18:43:04.864Z,11.21
2019-04-10T18:45:33.639Z,11.39
2019-04-10T18:48:02.673Z,11.52
2019-04-10T18:50:34.140Z,11.42
2019-04-10T18:53:01.900Z,11.73
2019-04-10T18:55:30.102Z,12.44
2019-04-10T18:57:59.037Z,12.76
2019-04-10T19:00:52.787Z,12.58
2019-04-10T19:03:44.119Z,12.18
2019-04-10T19:06:04.640Z,11.18
2019-04-10T19:08:32.445Z,11.61
2019-04-10T19:13:30.749Z,11.99
2019-04-10T19:15:59.224Z,11.97
2019-04-10T19:18:28.093Z,11.70
2019-04-10T19:20:57.164Z,12.27
2019-04-10T19:23:25.549Z,11.65
2019-04-10T19:25:54.603Z,11.48
2019-04-10T19:28:32.258Z,11.35
2019-04-10T19:31:08.813Z,11.25
2019-04-10T19:33:26.870Z,11.00
2019-04-10T19:35:55.191Z,10.99
2019-04-10T19:38:23.193Z,11.08
2019-04-10T19:40:54.294Z,11.05
2019-04-10T19:43:22.141Z,11.23
2019-04-10T19:45:50.308Z,11.09
2019-04-10T19:48:19.154Z,11.19
2019-04-10T19:50:47.775Z,10.77
2019-04-10T19:53:15.620Z,11.09
2019-04-10T19:55:44.128Z,10.44
2019-04-10T19:58:12.533Z,10.49
2019-04-10T20:00:40.937Z,11.26
2019-04-10T20:03:08.817Z,11.23
2019-04-10T20:05:37.239Z,11.17
2019-04-10T20:08:05.276Z,11.60
2019-04-10T20:10:33.187Z,11.26
2019-04-10T20:13:01.404Z,11.49
2019-04-10T20:15:29.433Z,10.87
2019-04-10T20:17:57.251Z,10.47
2019-04-10T20:20:27.141Z,10.82
2019-04-10T20:22:55.595Z,10.81
2019-04-10T20:25:48.423Z,10.88
2019-04-10T20:28:16.870Z,11.04
2019-04-10T20:30:44.729Z,10.88
2019-04-10T20:33:12.536Z,11.40
2019-04-10T20:35:40.472Z,11.37
2019-04-10T20:38:09.325Z,11.25
2019-04-10T20:40:38.106Z,11.96
2019-04-10T20:43:18.546Z,12.23
2019-04-10T20:45:48.074Z,11.12
2019-04-10T20:48:16.176Z,11.47
2019-04-10T20:50:44.162Z,11.63
2019-04-10T20:53:12.295Z,11.40
2019-04-10T20:55:41.897Z,11.33
2019-04-10T20:58:18.640Z,11.59
2019-04-10T21:00:46.872Z,12.04
2019-04-10T21:03:15.529Z,11.43
2019-04-10T21:05:44.447Z,11.81
2019-04-10T21:08:13.642Z,11.38
2019-04-10T21:10:41.488Z,12.17
2019-04-10T21:13:17.069Z,11.89
2019-04-10T21:15:44.987Z,9.86
2019-04-10T21:18:13.178Z,11.15
2019-04-10T21:20:41.079Z,10.78
2019-04-10T21:23:08.857Z,10.98
2019-04-10T21:25:36.617Z,10.82
2019-04-10T21:28:04.857Z,12.07
2019-04-10T21:37:28.478Z,12.98
2019-04-10T21:39:56.294Z,12.53
2019-04-10T21:42:25.736Z,11.33
2019-04-10T21:44:53.499Z,12.90
2019-04-10T21:47:21.668Z,11.89
2019-04-10T21:49:50.528Z,12.37
2019-04-10T21:52:18.624Z,11.84
2019-04-10T21:54:52.228Z,12.19
2019-04-10T21:57:16.087Z,11.45
2019-04-10T21:59:43.861Z,12.15
2019-04-10T22:02:11.650Z,12.57
2019-04-10T22:04:41.340Z,12.63
2019-04-10T22:07:22.169Z,11.79
2019-04-10T22:09:59.410Z,11.61
2019-04-10T22:12:31.615Z,11.41
2019-04-10T22:14:58.047Z,11.65
2019-04-10T22:17:26.809Z,12.14
2019-04-10T22:19:55.016Z,11.83
2019-04-10T22:22:22.829Z,10.87
2019-04-10T22:24:50.627Z,11.03
2019-04-10T22:27:19.044Z,10.61
2019-04-10T22:29:46.971Z,11.08
2019-04-10T22:32:14.744Z,11.42
2019-04-10T22:34:48.099Z,12.05
2019-04-10T22:37:16.943Z,11.24
2019-04-10T22:39:44.830Z,11.05
2019-04-10T22:42:13.013Z,11.05
2019-04-10T22:44:45.181Z,12.02
2019-04-10T22:47:11.310Z,10.63
2019-04-10T22:49:39.330Z,11.52
2019-04-10T22:52:07.184Z,11.82
2019-04-10T22:54:35.019Z,12.09
2019-04-10T22:57:04.731Z,11.90
2019-04-10T22:59:32.670Z,11.87
2019-04-10T23:02:07.189Z,12.21
2019-04-10T23:04:30.633Z,11.93
2019-04-10T23:07:01.959Z,12.20
2019-04-10T23:09:33.407Z,11.44
2019-04-10T23:12:02.232Z,11.72
2019-04-10T23:14:31.100Z,11.82
2019-04-10T23:17:00.059Z,11.57
2019-04-10T23:19:28.151Z,11.49
2019-04-10T23:21:56.709Z,11.99
2019-04-10T23:24:24.562Z,11.99
2019-04-10T23:26:53.324Z,11.34
2019-04-10T23:29:22.273Z,11.13
2019-04-10T23:31:50.105Z,10.65
2019-04-10T23:34:18.875Z,11.24
2019-04-10T23:36:46.711Z,11.32
2019-04-10T23:39:14.420Z,11.63
2019-04-10T23:41:42.409Z,11.66
2019-04-10T23:44:13.296Z,12.05
2019-04-10T23:46:43.348Z,12.01
2019-04-10T23:49:11.546Z,11.73
2019-04-10T23:51:39.250Z,11.62
2019-04-10T23:54:06.991Z,12.38
2019-04-10T23:56:35.661Z,11.81
2019-04-10T23:59:04.490Z,11.97
